Terminal Aerodrome Forecast
Issued by NWS

Home | Current Version | Previous Version | Graphics & Text | Print | Product List | Glossary On
Versions: 1 2 3 4 5 6 7 8 9 10 11 12 13 14 15 16 17 18 19 20
182
FTUS43 KGRB 182338
TAFMTW
TAF
KMTW 182338Z 1900/1924 17016G25KT P6SM SCT011 BKN120 WS020/20055KT
      TEMPO 1900/1902 BKN011
     FM190400 18012KT P6SM BKN120 WS018/21050KT
     FM191100 20005KT 5SM BR BKN080
     FM191200 16004KT 5SM -RA BR OVC040
     FM191500 05006KT 5SM -RA BR OVC021
     FM192200 04015G23KT 3SM -FZRA BR OVC006=

USA.gov is the U.S. government's official web portal to all federal, state and local government web resources and services.